sensor_id;sensor_type;location;lat;lon;timestamp;pressure;altitude;pressure_sealevel;temperature;humidity
54038;BME280;39954;48.844;9.726;2023-11-21T00:00:46;95546.72;;;4.78;100.00
54038;BME280;39954;48.844;9.726;2023-11-21T00:01:51;95541.56;;;4.78;100.00
54038;BME280;39954;48.844;9.726;2023-11-21T00:02:53;95543.31;;;4.77;100.00
54038;BME280;39954;48.844;9.726;2023-11-21T00:03:59;95539.06;;;4.76;100.00
54038;BME280;39954;48.844;9.726;2023-11-21T00:05:04;95543.38;;;4.76;100.00
54038;BME280;39954;48.844;9.726;2023-11-21T00:06:07;95541.69;;;4.75;100.00
54038;BME280;39954;48.844;9.726;2023-11-21T00:07:12;95539.13;;;4.75;100.00
54038;BME280;39954;48.844;9.726;2023-11-21T00:08:14;95540.91;;;4.72;100.00
54038;BME280;39954;48.844;9.726;2023-11-21T00:09:19;95538.28;;;4.74;100.00
54038;BME280;39954;48.844;9.726;2023-11-21T00:10:22;95540.78;;;4.76;100.00
54038;BME280;39954;48.844;9.726;2023-11-21T00:11:26;95539.97;;;4.75;100.00
54038;BME280;39954;48.844;9.726;2023-11-21T00:12:29;95534.91;;;4.74;100.00
54038;BME280;39954;48.844;9.726;2023-11-21T00:13:33;95540.88;;;4.74;100.00
54038;BME280;39954;48.844;9.726;2023-11-21T00:14:39;95535.72;;;4.74;100.00
54038;BME280;39954;48.844;9.726;2023-11-21T00:15:44;95537.47;;;4.74;100.00
54038;BME280;39954;48.844;9.726;2023-11-21T00:16:46;95540.03;;;4.74;100.00
54038;BME280;39954;48.844;9.726;2023-11-21T00:17:51;95539.97;;;4.75;100.00
54038;BME280;39954;48.844;9.726;2023-11-21T00:18:53;95534.81;;;4.75;100.00
54038;BME280;39954;48.844;9.726;2023-11-21T00:19:58;95541.00;;;4.71;100.00
54038;BME280;39954;48.844;9.726;2023-11-21T00:21:00;95545.25;;;4.72;100.00
54038;BME280;39954;48.844;9.726;2023-11-21T00:22:05;95534.13;;;4.71;100.00
54038;BME280;39954;48.844;9.726;2023-11-21T00:23:09;95533.28;;;4.71;100.00
54038;BME280;39954;48.844;9.726;2023-11-21T00:24:14;95532.44;;;4.70;100.00
54038;BME280;39954;48.844;9.726;2023-11-21T00:25:16;95534.25;;;4.68;100.00
54038;BME280;39954;48.844;9.726;2023-11-21T00:26:19;95527.31;;;4.70;100.00
54038;BME280;39954;48.844;9.726;2023-11-21T00:27:24;95528.28;;;4.68;100.00
54038;BME280;39954;48.844;9.726;2023-11-21T00:28:28;95530.75;;;4.69;100.00
54038;BME280;39954;48.844;9.726;2023-11-21T00:29:34;95533.34;;;4.69;100.00
54038;BME280;39954;48.844;9.726;2023-11-21T00:30:39;95534.25;;;4.68;100.00
54038;BME280;39954;48.844;9.726;2023-11-21T00:31:44;95524.84;;;4.67;100.00
54038;BME280;39954;48.844;9.726;2023-11-21T00:32:46;95529.09;;;4.68;100.00
54038;BME280;39954;48.844;9.726;2023-11-21T00:33:51;95529.09;;;4.68;100.00
54038;BME280;39954;48.844;9.726;2023-11-21T00:34:53;95526.44;;;4.70;100.00
54038;BME280;39954;48.844;9.726;2023-11-21T00:35:56;95529.09;;;4.68;100.00
54038;BME280;39954;48.844;9.726;2023-11-21T00:37:01;95532.50;;;4.69;100.00
54038;BME280;39954;48.844;9.726;2023-11-21T00:38:04;95529.88;;;4.70;100.00
54038;BME280;39954;48.844;9.726;2023-11-21T00:39:10;95530.84;;;4.68;100.00
54038;BME280;39954;48.844;9.726;2023-11-21T00:40:14;95533.41;;;4.68;100.00
54038;BME280;39954;48.844;9.726;2023-11-21T00:41:21;95526.56;;;4.67;100.00
54038;BME280;39954;48.844;9.726;2023-11-21T00:42:23;95526.66;;;4.65;100.00
54038;BME280;39954;48.844;9.726;2023-11-21T00:43:25;95530.94;;;4.65;100.00
54038;BME280;39954;48.844;9.726;2023-11-21T00:44:30;95533.47;;;4.66;100.00
54038;BME280;39954;48.844;9.726;2023-11-21T00:45:33;95532.63;;;4.66;100.00
54038;BME280;39954;48.844;9.726;2023-11-21T00:46:42;95534.94;;;4.72;100.00
54038;BME280;39954;48.844;9.726;2023-11-21T00:47:45;95533.28;;;4.71;100.00
54038;BME280;39954;48.844;9.726;2023-11-21T00:48:50;95530.84;;;4.68;100.00
54038;BME280;39954;48.844;9.726;2023-11-21T00:49:52;95531.72;;;4.67;100.00
54038;BME280;39954;48.844;9.726;2023-11-21T00:50:57;95533.34;;;4.69;100.00
54038;BME280;39954;48.844;9.726;2023-11-21T00:51:59;95527.41;;;4.67;100.00
54038;BME280;39954;48.844;9.726;2023-11-21T00:53:04;95528.28;;;4.68;100.00
54038;BME280;39954;48.844;9.726;2023-11-21T00:54:06;95523.16;;;4.66;100.00
54038;BME280;39954;48.844;9.726;2023-11-21T00:55:11;95522.25;;;4.67;100.00
54038;BME280;39954;48.844;9.726;2023-11-21T00:56:13;95525.75;;;4.66;100.00
54038;BME280;39954;48.844;9.726;2023-11-21T00:57:18;95516.28;;;4.67;100.00
54038;BME280;39954;48.844;9.726;2023-11-21T00:58:21;95529.97;;;4.67;100.00
54038;BME280;39954;48.844;9.726;2023-11-21T00:59:26;95523.13;;;4.68;100.00
54038;BME280;39954;48.844;9.726;2023-11-21T01:00:28;95523.13;;;4.68;100.00
54038;BME280;39954;48.844;9.726;2023-11-21T01:01:33;95525.69;;;4.68;100.00
54038;BME280;39954;48.844;9.726;2023-11-21T01:02:37;95532.56;;;4.67;100.00
54038;BME280;39954;48.844;9.726;2023-11-21T01:03:45;95523.88;;;4.70;100.00
54038;BME280;39954;48.844;9.726;2023-11-21T01:04:48;95522.22;;;4.69;100.00
54038;BME280;39954;48.844;9.726;2023-11-21T01:05:52;95529.88;;;4.70;100.00
54038;BME280;39954;48.844;9.726;2023-11-21T01:06:55;95523.88;;;4.70;100.00
54038;BME280;39954;48.844;9.726;2023-11-21T01:08:00;95520.47;;;4.69;100.00
54038;BME280;39954;48.844;9.726;2023-11-21T01:09:02;95523.03;;;4.69;100.00
54038;BME280;39954;48.844;9.726;2023-11-21T01:10:10;95520.47;;;4.69;100.00
54038;BME280;39954;48.844;9.726;2023-11-21T01:11:12;95526.38;;;4.71;100.00
54038;BME280;39954;48.844;9.726;2023-11-21T01:12:17;95512.69;;;4.71;100.00
54038;BME280;39954;48.844;9.726;2023-11-21T01:13:19;95524.59;;;4.74;100.00
54038;BME280;39954;48.844;9.726;2023-11-21T01:14:24;95515.13;;;4.74;100.00
54038;BME280;39954;48.844;9.726;2023-11-21T01:15:28;95519.31;;;4.77;100.00
54038;BME280;39954;48.844;9.726;2023-11-21T01:16:33;95504.56;;;4.80;100.00
54038;BME280;39954;48.844;9.726;2023-11-21T01:17:38;95520.84;;;4.81;100.00
54038;BME280;39954;48.844;9.726;2023-11-21T01:18:43;95530.34;;;4.79;100.00
54038;BME280;39954;48.844;9.726;2023-11-21T01:19:45;95523.56;;;4.78;100.00
54038;BME280;39954;48.844;9.726;2023-11-21T01:20:50;95522.63;;;4.79;100.00
54038;BME280;39954;48.844;9.726;2023-11-21T01:21:54;95520.72;;;4.84;100.00
54038;BME280;39954;48.844;9.726;2023-11-21T01:22:56;95515.63;;;4.82;100.00
54038;BME280;39954;48.844;9.726;2023-11-21T01:24:02;95521.63;;;4.83;100.00
54038;BME280;39954;48.844;9.726;2023-11-21T01:25:05;95522.59;;;4.80;100.00
54038;BME280;39954;48.844;9.726;2023-11-21T01:26:09;95520.78;;;4.82;100.00
54038;BME280;39954;48.844;9.726;2023-11-21T01:27:13;95522.44;;;4.83;100.00
54038;BME280;39954;48.844;9.726;2023-11-21T01:28:16;95516.47;;;4.83;100.00
54038;BME280;39954;48.844;9.726;2023-11-21T01:29:21;95516.47;;;4.83;100.00
54038;BME280;39954;48.844;9.726;2023-11-21T01:30:23;95525.09;;;4.82;100.00
54038;BME280;39954;48.844;9.726;2023-11-21T01:31:28;95518.13;;;4.84;100.00
54038;BME280;39954;48.844;9.726;2023-11-21T01:32:31;95521.53;;;4.84;100.00
54038;BME280;39954;48.844;9.726;2023-11-21T01:33:39;95521.47;;;4.86;100.00
54038;BME280;39954;48.844;9.726;2023-11-21T01:34:41;95520.56;;;4.87;100.00
54038;BME280;39954;48.844;9.726;2023-11-21T01:35:46;95522.25;;;4.88;100.00
54038;BME280;39954;48.844;9.726;2023-11-21T01:36:48;95521.47;;;4.86;100.00
54038;BME280;39954;48.844;9.726;2023-11-21T01:37:53;95518.91;;;4.86;100.00
54038;BME280;39954;48.844;9.726;2023-11-21T01:38:56;95523.16;;;4.87;100.00
54038;BME280;39954;48.844;9.726;2023-11-21T01:40:01;95520.66;;;4.85;100.00
54038;BME280;39954;48.844;9.726;2023-11-21T01:41:04;95524.88;;;4.86;100.00
54038;BME280;39954;48.844;9.726;2023-11-21T01:42:08;95522.31;;;4.86;100.00
54038;BME280;39954;48.844;9.726;2023-11-21T01:43:13;95518.91;;;4.86;100.00
54038;BME280;39954;48.844;9.726;2023-11-21T01:44:15;95519.69;;;4.88;100.00
54038;BME280;39954;48.844;9.726;2023-11-21T01:45:21;95520.53;;;4.88;100.00
54038;BME280;39954;48.844;9.726;2023-11-21T01:46:23;95516.19;;;4.89;100.00
54038;BME280;39954;48.844;9.726;2023-11-21T01:47:28;95521.34;;;4.89;100.00
54038;BME280;39954;48.844;9.726;2023-11-21T01:48:32;95524.75;;;4.89;100.00
54038;BME280;39954;48.844;9.726;2023-11-21T01:49:43;95514.53;;;4.88;100.00
54038;BME280;39954;48.844;9.726;2023-11-21T01:50:46;95524.84;;;4.88;100.00
54038;BME280;39954;48.844;9.726;2023-11-21T01:51:51;95514.41;;;4.91;100.00
54038;BME280;39954;48.844;9.726;2023-11-21T01:52:54;95515.19;;;4.93;100.00
54038;BME280;39954;48.844;9.726;2023-11-21T01:53:58;95513.56;;;4.90;100.00
54038;BME280;39954;48.844;9.726;2023-11-21T01:55:01;95518.63;;;4.92;100.00
54038;BME280;39954;48.844;9.726;2023-11-21T01:56:07;95518.72;;;4.90;100.00
54038;BME280;39954;48.844;9.726;2023-11-21T01:57:11;95520.38;;;4.91;100.00
54038;BME280;39954;48.844;9.726;2023-11-21T01:58:18;95522.91;;;4.93;100.00
54038;BME280;39954;48.844;9.726;2023-11-21T01:59:21;95522.91;;;4.93;100.00
54038;BME280;39954;48.844;9.726;2023-11-21T02:00:26;95518.59;;;4.93;100.00
54038;BME280;39954;48.844;9.726;2023-11-21T02:01:31;95521.22;;;4.92;100.00
54038;BME280;39954;48.844;9.726;2023-11-21T02:02:36;95516.91;;;4.92;100.00
54038;BME280;39954;48.844;9.726;2023-11-21T02:03:38;95526.34;;;4.92;100.00
54038;BME280;39954;48.844;9.726;2023-11-21T02:04:47;95522.91;;;4.93;100.00
54038;BME280;39954;48.844;9.726;2023-11-21T02:05:49;95526.34;;;4.92;100.00
54038;BME280;39954;48.844;9.726;2023-11-21T02:06:55;95522.03;;;4.92;100.00
54038;BME280;39954;48.844;9.726;2023-11-21T02:07:58;95521.06;;;4.95;100.00
54038;BME280;39954;48.844;9.726;2023-11-21T02:09:00;95524.56;;;4.94;100.00
54038;BME280;39954;48.844;9.726;2023-11-21T02:10:07;95525.47;;;4.93;100.00
54038;BME280;39954;48.844;9.726;2023-11-21T02:11:09;95518.59;;;4.93;100.00
54038;BME280;39954;48.844;9.726;2023-11-21T02:12:15;95522.03;;;4.92;100.00
54038;BME280;39954;48.844;9.726;2023-11-21T02:13:17;95515.94;;;4.95;100.00
54038;BME280;39954;48.844;9.726;2023-11-21T02:14:22;95524.28;;;5.00;100.00
54038;BME280;39954;48.844;9.726;2023-11-21T02:15:25;95510.50;;;5.01;100.00
54038;BME280;39954;48.844;9.726;2023-11-21T02:16:31;95518.16;;;5.03;100.00
54038;BME280;39954;48.844;9.726;2023-11-21T02:17:35;95512.31;;;4.99;100.00
54038;BME280;39954;48.844;9.726;2023-11-21T02:18:40;95516.69;;;4.97;100.00
54038;BME280;39954;48.844;9.726;2023-11-21T02:19:46;95516.69;;;4.97;100.00
54038;BME280;39954;48.844;9.726;2023-11-21T02:20:53;95513.28;;;4.97;100.00
54038;BME280;39954;48.844;9.726;2023-11-21T02:21:57;95514.97;;;4.98;100.00
54038;BME280;39954;48.844;9.726;2023-11-21T02:23:07;95516.75;;;4.96;100.00
54038;BME280;39954;48.844;9.726;2023-11-21T02:24:10;95511.59;;;4.96;100.00
54038;BME280;39954;48.844;9.726;2023-11-21T02:25:15;95521.03;;;4.97;100.00
54038;BME280;39954;48.844;9.726;2023-11-21T02:26:17;95522.34;;;5.05;100.00
54038;BME280;39954;48.844;9.726;2023-11-21T02:27:23;95515.66;;;5.01;100.00
54038;BME280;39954;48.844;9.726;2023-11-21T02:28:25;95515.53;;;5.04;100.00
54038;BME280;39954;48.844;9.726;2023-11-21T02:29:30;95503.69;;;5.00;100.00
54038;BME280;39954;48.844;9.726;2023-11-21T02:30:33;95516.28;;;5.06;100.00
54038;BME280;39954;48.844;9.726;2023-11-21T02:31:39;95517.97;;;5.07;100.00
54038;BME280;39954;48.844;9.726;2023-11-21T02:32:50;95512.81;;;5.07;100.00
54038;BME280;39954;48.844;9.726;2023-11-21T02:33:55;95502.72;;;5.03;100.00
54038;BME280;39954;48.844;9.726;2023-11-21T02:34:57;95504.38;;;5.04;100.00
54038;BME280;39954;48.844;9.726;2023-11-21T02:36:10;95512.06;;;5.05;100.00
54038;BME280;39954;48.844;9.726;2023-11-21T02:37:12;95512.88;;;5.06;100.00
54038;BME280;39954;48.844;9.726;2023-11-21T02:38:20;95512.06;;;5.05;100.00
54038;BME280;39954;48.844;9.726;2023-11-21T02:39:22;95505.09;;;5.07;100.00
54038;BME280;39954;48.844;9.726;2023-11-21T02:40:27;95510.13;;;5.10;100.00
54038;BME280;39954;48.844;9.726;2023-11-21T02:41:30;95506.75;;;5.08;100.00
54038;BME280;39954;48.844;9.726;2023-11-21T02:42:36;95506.91;;;5.05;100.00
54038;BME280;39954;48.844;9.726;2023-11-21T02:43:38;95503.69;;;5.00;100.00
54038;BME280;39954;48.844;9.726;2023-11-21T02:44:43;95500.19;;;5.01;100.00
54038;BME280;39954;48.844;9.726;2023-11-21T02:45:46;95505.50;;;4.98;100.00
54038;BME280;39954;48.844;9.726;2023-11-21T02:46:51;95505.34;;;5.01;100.00
54038;BME280;39954;48.844;9.726;2023-11-21T02:47:53;95497.75;;;4.98;100.00
54038;BME280;39954;48.844;9.726;2023-11-21T02:49:00;95513.84;;;5.03;100.00
54038;BME280;39954;48.844;9.726;2023-11-21T02:50:03;95502.53;;;5.07;100.00
54038;BME280;39954;48.844;9.726;2023-11-21T02:51:09;95507.53;;;5.10;100.00
54038;BME280;39954;48.844;9.726;2023-11-21T02:52:12;95511.00;;;5.09;100.00
54038;BME280;39954;48.844;9.726;2023-11-21T02:53:17;95513.72;;;5.06;100.00
54038;BME280;39954;48.844;9.726;2023-11-21T02:54:21;95507.03;;;5.02;100.00
54038;BME280;39954;48.844;9.726;2023-11-21T02:55:26;95506.25;;;5.00;100.00
54038;BME280;39954;48.844;9.726;2023-11-21T02:56:29;95507.19;;;4.99;100.00
54038;BME280;39954;48.844;9.726;2023-11-21T02:57:34;95512.31;;;4.99;100.00
54038;BME280;39954;48.844;9.726;2023-11-21T02:58:37;95508.97;;;4.97;100.00
54038;BME280;39954;48.844;9.726;2023-11-21T02:59:41;95509.75;;;4.99;100.00
54038;BME280;39954;48.844;9.726;2023-11-21T03:00:44;95508.97;;;4.97;100.00
54038;BME280;39954;48.844;9.726;2023-11-21T03:01:48;95514.00;;;5.00;100.00
54038;BME280;39954;48.844;9.726;2023-11-21T03:02:51;95509.75;;;4.99;100.00
54038;BME280;39954;48.844;9.726;2023-11-21T03:03:57;95510.63;;;4.98;100.00
54038;BME280;39954;48.844;9.726;2023-11-21T03:04:59;95506.41;;;4.97;100.00
54038;BME280;39954;48.844;9.726;2023-11-21T03:06:05;95505.50;;;4.98;100.00
54038;BME280;39954;48.844;9.726;2023-11-21T03:07:07;95509.75;;;4.99;100.00
54038;BME280;39954;48.844;9.726;2023-11-21T03:08:12;95504.75;;;4.96;100.00
54038;BME280;39954;48.844;9.726;2023-11-21T03:09:14;95503.81;;;4.97;100.00
54038;BME280;39954;48.844;9.726;2023-11-21T03:10:22;95503.03;;;4.95;100.00
54038;BME280;39954;48.844;9.726;2023-11-21T03:11:25;95504.75;;;4.96;100.00
54038;BME280;39954;48.844;9.726;2023-11-21T03:12:30;95500.34;;;4.98;100.00
54038;BME280;39954;48.844;9.726;2023-11-21T03:13:32;95502.16;;;4.96;100.00
54038;BME280;39954;48.844;9.726;2023-11-21T03:14:37;95503.13;;;4.93;100.00
54038;BME280;39954;48.844;9.726;2023-11-21T03:15:39;95497.16;;;4.93;100.00
54038;BME280;39954;48.844;9.726;2023-11-21T03:16:44;95498.81;;;4.94;100.00
54038;BME280;39954;48.844;9.726;2023-11-21T03:17:47;95500.56;;;4.93;100.00
54038;BME280;39954;48.844;9.726;2023-11-21T03:18:52;95509.94;;;4.94;100.00
54038;BME280;39954;48.844;9.726;2023-11-21T03:19:55;95503.97;;;4.94;100.00
54038;BME280;39954;48.844;9.726;2023-11-21T03:21:00;95503.97;;;4.94;100.00
54038;BME280;39954;48.844;9.726;2023-11-21T03:22:02;95506.59;;;4.92;100.00
54038;BME280;39954;48.844;9.726;2023-11-21T03:23:09;95507.47;;;4.93;100.00
54038;BME280;39954;48.844;9.726;2023-11-21T03:24:11;95507.38;;;4.94;100.00
54038;BME280;39954;48.844;9.726;2023-11-21T03:25:22;95508.28;;;4.93;100.00
54038;BME280;39954;48.844;9.726;2023-11-21T03:26:26;95509.94;;;4.94;100.00
54038;BME280;39954;48.844;9.726;2023-11-21T03:27:31;95511.56;;;4.97;100.00
54038;BME280;39954;48.844;9.726;2023-11-21T03:28:34;95513.06;;;5.01;100.00
54038;BME280;39954;48.844;9.726;2023-11-21T03:29:36;95518.13;;;5.04;100.00
54038;BME280;39954;48.844;9.726;2023-11-21T03:30:41;95512.06;;;5.05;100.00
54038;BME280;39954;48.844;9.726;2023-11-21T03:31:43;95512.19;;;5.02;100.00
54038;BME280;39954;48.844;9.726;2023-11-21T03:32:48;95515.53;;;5.04;100.00
54038;BME280;39954;48.844;9.726;2023-11-21T03:33:50;95512.19;;;5.02;100.00
54038;BME280;39954;48.844;9.726;2023-11-21T03:34:55;95515.78;;;4.98;100.00
54038;BME280;39954;48.844;9.726;2023-11-21T03:36:01;95508.00;;;5.00;100.00
54038;BME280;39954;48.844;9.726;2023-11-21T03:37:03;95507.69;;;5.07;100.00
54038;BME280;39954;48.844;9.726;2023-11-21T03:38:10;95513.22;;;4.98;100.00
54038;BME280;39954;48.844;9.726;2023-11-21T03:39:12;95511.50;;;4.99;100.00
54038;BME280;39954;48.844;9.726;2023-11-21T03:40:17;95516.66;;;4.99;100.00
54038;BME280;39954;48.844;9.726;2023-11-21T03:41:22;95510.78;;;4.95;100.00
54038;BME280;39954;48.844;9.726;2023-11-21T03:42:27;95515.94;;;4.95;100.00
54038;BME280;39954;48.844;9.726;2023-11-21T03:43:29;95514.25;;;4.94;100.00
54038;BME280;39954;48.844;9.726;2023-11-21T03:44:31;95519.47;;;4.92;100.00
54038;BME280;39954;48.844;9.726;2023-11-21T03:45:36;95521.06;;;4.95;100.00
54038;BME280;39954;48.844;9.726;2023-11-21T03:46:39;95515.03;;;4.96;100.00
54038;BME280;39954;48.844;9.726;2023-11-21T03:47:44;95509.13;;;4.94;100.00
54038;BME280;39954;48.844;9.726;2023-11-21T03:48:48;95515.19;;;4.93;100.00
54038;BME280;39954;48.844;9.726;2023-11-21T03:49:53;95511.59;;;4.96;100.00
54038;BME280;39954;48.844;9.726;2023-11-21T03:50:55;95515.19;;;4.93;100.00
54038;BME280;39954;48.844;9.726;2023-11-21T03:52:00;95510.03;;;4.93;100.00
54038;BME280;39954;48.844;9.726;2023-11-21T03:53:02;95510.78;;;4.95;100.00
54038;BME280;39954;48.844;9.726;2023-11-21T03:54:07;95507.31;;;4.96;100.00
54038;BME280;39954;48.844;9.726;2023-11-21T03:55:09;95510.63;;;4.98;100.00
54038;BME280;39954;48.844;9.726;2023-11-21T03:56:13;95518.50;;;4.95;100.00
54038;BME280;39954;48.844;9.726;2023-11-21T03:57:21;95515.22;;;4.91;100.00
54038;BME280;39954;48.844;9.726;2023-11-21T03:58:23;95513.56;;;4.90;100.00
54038;BME280;39954;48.844;9.726;2023-11-21T03:59:29;95512.72;;;4.90;100.00
54038;BME280;39954;48.844;9.726;2023-11-21T04:00:31;95512.59;;;4.93;100.00
54038;BME280;39954;48.844;9.726;2023-11-21T04:01:36;95513.50;;;4.92;100.00
54038;BME280;39954;48.844;9.726;2023-11-21T04:02:38;95512.72;;;4.90;100.00
54038;BME280;39954;48.844;9.726;2023-11-21T04:03:44;95507.56;;;4.90;100.00
54038;BME280;39954;48.844;9.726;2023-11-21T04:04:46;95518.72;;;4.90;100.00
54038;BME280;39954;48.844;9.726;2023-11-21T04:05:51;95518.72;;;4.90;100.00
54038;BME280;39954;48.844;9.726;2023-11-21T04:06:53;95514.41;;;4.91;100.00
54038;BME280;39954;48.844;9.726;2023-11-21T04:07:58;95512.72;;;4.90;100.00
54038;BME280;39954;48.844;9.726;2023-11-21T04:09:00;95508.47;;;4.89;100.00
54038;BME280;39954;48.844;9.726;2023-11-21T04:10:07;95514.44;;;4.89;100.00
54038;BME280;39954;48.844;9.726;2023-11-21T04:11:11;95516.19;;;4.89;100.00
54038;BME280;39954;48.844;9.726;2023-11-21T04:12:17;95511.03;;;4.89;100.00
54038;BME280;39954;48.844;9.726;2023-11-21T04:13:22;95516.28;;;4.87;100.00
54038;BME280;39954;48.844;9.726;2023-11-21T04:14:27;95517.84;;;4.90;100.00
54038;BME280;39954;48.844;9.726;2023-11-21T04:15:29;95517.84;;;4.90;100.00
54038;BME280;39954;48.844;9.726;2023-11-21T04:16:34;95516.19;;;4.89;100.00
54038;BME280;39954;48.844;9.726;2023-11-21T04:17:36;95505.06;;;4.88;100.00
54038;BME280;39954;48.844;9.726;2023-11-21T04:18:41;95511.75;;;4.92;100.00
54038;BME280;39954;48.844;9.726;2023-11-21T04:19:43;95509.31;;;4.89;100.00
54038;BME280;39954;48.844;9.726;2023-11-21T04:20:48;95510.28;;;4.87;100.00
54038;BME280;39954;48.844;9.726;2023-11-21T04:21:51;95512.84;;;4.87;100.00
54038;BME280;39954;48.844;9.726;2023-11-21T04:22:56;95516.34;;;4.86;100.00
54038;BME280;39954;48.844;9.726;2023-11-21T04:23:58;95514.69;;;4.85;100.00
54038;BME280;39954;48.844;9.726;2023-11-21T04:25:03;95514.69;;;4.85;100.00
54038;BME280;39954;48.844;9.726;2023-11-21T04:26:05;95516.34;;;4.86;100.00
54038;BME280;39954;48.844;9.726;2023-11-21T04:27:10;95516.34;;;4.86;100.00
54038;BME280;39954;48.844;9.726;2023-11-21T04:28:13;95514.41;;;4.91;100.00
54038;BME280;39954;48.844;9.726;2023-11-21T04:29:17;95509.44;;;4.86;100.00
54038;BME280;39954;48.844;9.726;2023-11-21T04:30:22;95514.59;;;4.86;100.00
54038;BME280;39954;48.844;9.726;2023-11-21T04:31:24;95516.34;;;4.86;100.00
54038;BME280;39954;48.844;9.726;2023-11-21T04:32:29;95508.63;;;4.86;100.00
54038;BME280;39954;48.844;9.726;2023-11-21T04:33:31;95514.41;;;4.91;100.00
54038;BME280;39954;48.844;9.726;2023-11-21T04:34:36;95510.13;;;4.90;100.00
54038;BME280;39954;48.844;9.726;2023-11-21T04:35:39;95514.53;;;4.88;100.00
54038;BME280;39954;48.844;9.726;2023-11-21T04:36:44;95515.41;;;4.87;100.00
54038;BME280;39954;48.844;9.726;2023-11-21T04:37:48;95524.06;;;4.86;100.00
54038;BME280;39954;48.844;9.726;2023-11-21T04:38:52;95523.28;;;4.84;100.00
54038;BME280;39954;48.844;9.726;2023-11-21T04:39:57;95524.00;;;4.87;100.00
54038;BME280;39954;48.844;9.726;2023-11-21T04:40:59;95526.69;;;4.84;100.00
54038;BME280;39954;48.844;9.726;2023-11-21T04:42:05;95534.41;;;4.84;100.00
54038;BME280;39954;48.844;9.726;2023-11-21T04:43:07;95526.69;;;4.84;100.00
54038;BME280;39954;48.844;9.726;2023-11-21T04:44:10;95534.31;;;4.87;100.00
54038;BME280;39954;48.844;9.726;2023-11-21T04:45:17;95530.94;;;4.85;100.00
54038;BME280;39954;48.844;9.726;2023-11-21T04:46:19;95529.34;;;4.83;100.00
54038;BME280;39954;48.844;9.726;2023-11-21T04:47:24;95525.84;;;4.84;100.00
54038;BME280;39954;48.844;9.726;2023-11-21T04:48:26;95526.69;;;4.84;100.00
54038;BME280;39954;48.844;9.726;2023-11-21T04:49:33;95531.00;;;4.84;100.00
54038;BME280;39954;48.844;9.726;2023-11-21T04:50:35;95530.13;;;4.85;100.00
54038;BME280;39954;48.844;9.726;2023-11-21T04:51:40;95537.97;;;4.82;100.00
54038;BME280;39954;48.844;9.726;2023-11-21T04:52:45;95544.78;;;4.83;100.00
54038;BME280;39954;48.844;9.726;2023-11-21T04:53:49;95535.41;;;4.82;100.00
54038;BME280;39954;48.844;9.726;2023-11-21T04:54:52;95538.81;;;4.82;100.00
54038;BME280;39954;48.844;9.726;2023-11-21T04:55:58;95546.53;;;4.82;100.00
54038;BME280;39954;48.844;9.726;2023-11-21T04:57:00;95538.88;;;4.81;100.00
54038;BME280;39954;48.844;9.726;2023-11-21T04:58:06;95541.44;;;4.81;100.00
54038;BME280;39954;48.844;9.726;2023-11-21T04:59:08;95538.88;;;4.81;100.00
54038;BME280;39954;48.844;9.726;2023-11-21T05:00:19;95542.25;;;4.81;100.00
54038;BME280;39954;48.844;9.726;2023-11-21T05:01:23;95542.22;;;4.83;100.00
54038;BME280;39954;48.844;9.726;2023-11-21T05:02:25;95542.22;;;4.83;100.00
54038;BME280;39954;48.844;9.726;2023-11-21T05:03:36;95544.94;;;4.80;100.00
54038;BME280;39954;48.844;9.726;2023-11-21T05:04:40;95545.81;;;4.79;100.00
54038;BME280;39954;48.844;9.726;2023-11-21T05:05:45;95548.38;;;4.79;100.00
54038;BME280;39954;48.844;9.726;2023-11-21T05:06:48;95539.00;;;4.78;100.00
54038;BME280;39954;48.844;9.726;2023-11-21T05:07:52;95545.94;;;4.76;100.00
54038;BME280;39954;48.844;9.726;2023-11-21T05:08:55;95543.38;;;4.76;100.00
54038;BME280;39954;48.844;9.726;2023-11-21T05:10:02;95550.25;;;4.75;100.00
54038;BME280;39954;48.844;9.726;2023-11-21T05:11:07;95544.28;;;4.75;100.00
54038;BME280;39954;48.844;9.726;2023-11-21T05:12:12;95553.59;;;4.77;100.00
54038;BME280;39954;48.844;9.726;2023-11-21T05:13:16;95544.28;;;4.75;100.00
54038;BME280;39954;48.844;9.726;2023-11-21T05:14:21;95548.59;;;4.74;100.00
54038;BME280;39954;48.844;9.726;2023-11-21T05:15:26;95546.03;;;4.74;100.00
54038;BME280;39954;48.844;9.726;2023-11-21T05:16:32;95550.13;;;4.78;100.00
54038;BME280;39954;48.844;9.726;2023-11-21T05:17:35;95548.50;;;4.76;100.00
54038;BME280;39954;48.844;9.726;2023-11-21T05:18:38;95551.16;;;4.74;100.00
54038;BME280;39954;48.844;9.726;2023-11-21T05:19:43;95555.41;;;4.75;100.00
54038;BME280;39954;48.844;9.726;2023-11-21T05:20:50;95553.78;;;4.72;100.00
54038;BME280;39954;48.844;9.726;2023-11-21T05:21:55;95557.19;;;4.73;100.00
54038;BME280;39954;48.844;9.726;2023-11-21T05:22:58;95554.72;;;4.71;100.00
54038;BME280;39954;48.844;9.726;2023-11-21T05:24:03;95552.91;;;4.74;100.00
54038;BME280;39954;48.844;9.726;2023-11-21T05:25:08;95554.72;;;4.71;100.00
54038;BME280;39954;48.844;9.726;2023-11-21T05:26:14;95554.72;;;4.71;100.00
54038;BME280;39954;48.844;9.726;2023-11-21T05:27:16;95565.00;;;4.71;100.00
54038;BME280;39954;48.844;9.726;2023-11-21T05:28:21;95565.00;;;4.71;100.00
54038;BME280;39954;48.844;9.726;2023-11-21T05:29:23;95556.38;;;4.72;100.00
54038;BME280;39954;48.844;9.726;2023-11-21T05:30:30;95565.00;;;4.71;100.00
54038;BME280;39954;48.844;9.726;2023-11-21T05:31:33;95564.03;;;4.74;100.00
54038;BME280;39954;48.844;9.726;2023-11-21T05:32:38;95563.22;;;4.74;100.00
54038;BME280;39954;48.844;9.726;2023-11-21T05:33:40;95562.81;;;4.83;100.00
54038;BME280;39954;48.844;9.726;2023-11-21T05:34:45;95563.72;;;4.82;100.00
54038;BME280;39954;48.844;9.726;2023-11-21T05:35:47;95568.88;;;4.82;100.00
54038;BME280;39954;48.844;9.726;2023-11-21T05:36:52;95572.31;;;4.81;100.00
54038;BME280;39954;48.844;9.726;2023-11-21T05:37:55;95568.94;;;4.80;100.00
54038;BME280;39954;48.844;9.726;2023-11-21T05:39:00;95570.66;;;4.80;100.00
54038;BME280;39954;48.844;9.726;2023-11-21T05:40:03;95572.94;;;4.87;100.00